Terminal Aerodrome Forecast
Issued by NWS

Home | Current Version | Previous Version | Text Only | Print | Product List | Glossary On
Versions: 1 2 3 4 5 6 7 8 9 10 11 12 13
000
FTUS45 KABQ 200500
TAFFMN
TAF
KFMN 200528Z 2006/2106 VRB05KT P6SM SCT050 BKN080
     FM200900 VRB06KT P6SM BKN035
     FM201600 26008KT P6SM SCT060
     FM202100 28011G18KT P6SM FEW070
     FM210100 29006KT P6SM FEW070=

USA.gov is the U.S. government's official web portal to all federal, state and local government web resources and services.